In Rescue
 
Open Full Screen Window  High Contrast Mode
November 29, 2022 9:47 AM EST
Weather Information
Wind Direction
  ---
Wind Speed
  00 kt (0 mph)
Wind Gust
  00 kt (0 mph)
Altimeter
30.27 in
Visibility
10 SM
Temperature
-01° C
30° F
Dewpoint
-06° C
21° F
Humidity
69%
Sky Condition
Overcast @ 2,400 ft
MVFR

METAR KEFK 291447Z AUTO 00000KT 10SM OVC024 M01/M06 A3027 RMK AO2 T10131065

FAA Disclaimer: The data displayed is for advisory purposes only and is not to be used for flight planning or operations.